Time;durP1;ratioP1;P1;durP2;ratioP2;P2;SDS_P1;SDS_P2;PMS_P1;PMS_P2;Temp;Humidity;BMP_temperature;BMP_pressure;BME280_temperature;BME280_humidity;BME280_pressure;Samples;Min_cycle;Max_cycle;Signal;HPM_P1;HPM_P2
2022/01/24 00:01:21;;;;;;;39.50;22.70;;;7.20;99.90;;;;;;5077329;28;20245;-59
2022/01/24 00:03:48;;;;;;;43.47;23.67;;;7.10;99.90;;;;;;5081715;28;20223;-59
2022/01/24 00:06:16;;;;;;;43.03;23.43;;;7.10;99.90;;;;;;5076113;28;20207;-58
2022/01/24 00:08:43;;;;;;;42.10;22.97;;;7.10;99.90;;;;;;5075816;28;20273;-59
2022/01/24 00:11:14;;;;;;;43.23;23.27;;;7.10;99.90;;;;;;5078175;28;20205;-59
2022/01/24 00:16:26;;;;;;;40.97;21.73;;;7.10;99.90;;;;;;5072568;28;20195;-57
2022/01/24 00:26:56;;;;;;;42.50;22.93;;;7.10;99.90;;;;;;5080490;28;20342;-58
2022/01/24 00:29:25;;;;;;;38.70;23.47;;;7.00;99.90;;;;;;5080858;28;20213;-57
2022/01/24 00:31:54;;;;;;;38.33;22.50;;;7.00;99.90;;;;;;5079184;28;20224;-59
2022/01/24 00:34:25;;;;;;;41.60;22.67;;;6.90;99.90;;;;;;5075153;28;20302;-58
2022/01/24 00:36:53;;;;;;;38.27;22.30;;;6.90;99.90;;;;;;5077391;28;20209;-58
2022/01/24 00:39:21;;;;;;;37.47;21.00;;;7.00;99.90;;;;;;5075509;28;20835;-58
2022/01/24 00:45:06;;;;;;;37.67;22.27;;;6.90;99.90;;;;;;5076875;28;20736;-58
2022/01/24 00:48:10;;;;;;;40.33;22.63;;;6.90;99.90;;;;;;5077128;28;20640;-58
2022/01/24 00:55:51;;;;;;;33.90;21.50;;;7.00;99.90;;;;;;5072463;28;20283;-57
2022/01/24 00:58:17;;;;;;;34.17;20.83;;;7.00;99.90;;;;;;5079383;28;20257;-57
2022/01/24 01:00:44;;;;;;;33.77;19.37;;;7.00;99.90;;;;;;5071532;28;20661;-58
2022/01/24 01:03:11;;;;;;;29.17;19.00;;;6.90;99.90;;;;;;5076051;28;20301;-57
2022/01/24 01:19:04;;;;;;;30.47;19.13;;;6.90;99.90;;;;;;5076345;28;20529;-58
2022/01/24 01:21:31;;;;;;;34.03;20.17;;;7.00;99.90;;;;;;5073762;28;20630;-58
2022/01/24 01:23:59;;;;;;;32.33;21.03;;;6.90;99.90;;;;;;5076013;28;20276;-59
2022/01/24 01:26:43;;;;;;;28.63;18.73;;;6.70;99.90;;;;;;5072605;28;20209;-57
2022/01/24 01:29:17;;;;;;;29.07;19.40;;;6.70;99.90;;;;;;5058877;28;20195;-57
2022/01/24 01:32:02;;;;;;;31.83;19.73;;;6.80;99.90;;;;;;5074660;28;20215;-56
2022/01/24 01:56:57;;;;;;;30.47;19.07;;;6.80;99.90;;;;;;4975790;28;20231;-58
2022/01/24 01:59:24;;;;;;;28.17;18.93;;;6.90;99.90;;;;;;4975151;28;20257;-57
2022/01/24 02:01:51;;;;;;;27.90;18.33;;;6.80;99.90;;;;;;4971192;28;20293;-58
2022/01/24 02:04:19;;;;;;;25.80;15.87;;;6.70;99.90;;;;;;4956570;28;20234;-59
2022/01/24 02:06:45;;;;;;;25.13;17.00;;;6.80;99.90;;;;;;4972020;28;20289;-58
2022/01/24 02:09:14;;;;;;;27.73;16.97;;;6.90;99.90;;;;;;4973084;28;20260;-59
2022/01/24 02:11:41;;;;;;;27.40;16.97;;;6.90;99.90;;;;;;5028822;28;20684;-58
2022/01/24 02:14:14;;;;;;;23.70;16.17;;;7.00;99.90;;;;;;5056056;28;20661;-56
2022/01/24 02:16:55;;;;;;;26.87;18.40;;;6.90;99.90;;;;;;5050170;28;20273;-58
2022/01/24 02:24:38;;;;;;;27.50;17.83;;;6.90;99.90;;;;;;5057263;28;20749;-58
2022/01/24 02:27:06;;;;;;;28.03;18.03;;;6.90;99.90;;;;;;5056631;28;21036;-58
2022/01/24 02:29:55;;;;;;;30.17;18.50;;;6.90;99.90;;;;;;5056829;28;20282;-59
2022/01/24 02:32:22;;;;;;;26.57;17.20;;;7.00;99.90;;;;;;5056495;28;20695;-59
2022/01/24 02:34:50;;;;;;;27.20;17.27;;;6.90;99.90;;;;;;5053839;28;20207;-56
2022/01/24 02:37:20;;;;;;;29.80;18.53;;;6.90;99.90;;;;;;5037730;28;20718;-59
2022/01/24 02:39:55;;;;;;;28.93;17.40;;;6.90;99.90;;;;;;5052947;28;20581;-59
2022/01/24 02:53:31;;;;;;;30.80;19.03;;;6.90;99.90;;;;;;5074204;28;20229;-59
2022/01/24 02:55:58;;;;;;;27.03;17.17;;;6.90;99.90;;;;;;5085058;28;20395;-57
2022/01/24 02:58:25;;;;;;;27.97;18.43;;;6.90;99.90;;;;;;5091413;28;20299;-58
2022/01/24 03:00:53;;;;;;;29.97;18.03;;;6.90;99.90;;;;;;5091127;28;20647;-58
2022/01/24 03:03:20;;;;;;;25.90;17.97;;;6.90;99.90;;;;;;5086495;28;20261;-58
2022/01/24 03:05:47;;;;;;;28.37;17.93;;;6.90;99.90;;;;;;5086983;28;20218;-57
2022/01/24 03:08:15;;;;;;;27.53;17.00;;;6.90;99.90;;;;;;5091505;28;20654;-58
2022/01/24 03:10:46;;;;;;;28.23;17.93;;;6.90;99.90;;;;;;5091460;28;20258;-59
2022/01/24 03:15:50;;;;;;;26.87;16.37;;;6.90;99.90;;;;;;5083458;28;20311;-59
2022/01/24 03:18:18;;;;;;;25.53;16.67;;;6.90;99.90;;;;;;5084712;28;20286;-57
2022/01/24 03:20:45;;;;;;;29.93;18.33;;;6.90;99.90;;;;;;5083819;28;20206;-55
2022/01/24 03:23:16;;;;;;;25.00;16.80;;;6.90;99.90;;;;;;5058843;28;20236;-58
2022/01/24 03:25:44;;;;;;;26.57;16.77;;;6.80;99.90;;;;;;5086858;28;20206;-58
2022/01/24 03:28:11;;;;;;;26.80;16.73;;;6.70;99.90;;;;;;5087562;28;20235;-58
2022/01/24 03:30:39;;;;;;;29.60;17.80;;;6.70;99.90;;;;;;5084013;28;20686;-58
2022/01/24 03:33:07;;;;;;;23.50;16.70;;;6.70;99.90;;;;;;5085833;28;20200;-58
2022/01/24 03:35:34;;;;;;;24.83;15.73;;;6.70;99.90;;;;;;5082976;28;20567;-58
2022/01/24 03:38:03;;;;;;;25.77;15.70;;;6.80;99.90;;;;;;5086163;28;21012;-59
2022/01/24 03:40:30;;;;;;;23.63;16.50;;;6.80;99.90;;;;;;5086800;28;20201;-59
2022/01/24 03:42:56;;;;;;;24.20;15.73;;;6.80;99.90;;;;;;5085369;28;20210;-57
2022/01/24 03:45:42;;;;;;;19.77;13.80;;;6.80;99.90;;;;;;5084575;28;20208;-58
2022/01/24 03:48:24;;;;;;;23.20;14.87;;;6.80;99.90;;;;;;5055753;28;20199;-58
2022/01/24 03:50:52;;;;;;;25.33;15.97;;;6.80;99.90;;;;;;5086101;28;20298;-58
2022/01/24 03:53:18;;;;;;;22.97;15.47;;;6.80;99.90;;;;;;5067350;28;20651;-59
2022/01/24 03:55:45;;;;;;;22.17;14.43;;;6.80;99.90;;;;;;5054958;28;20551;-56
2022/01/24 03:58:12;;;;;;;22.90;14.27;;;6.70;99.90;;;;;;5059903;28;20191;-58
2022/01/24 04:00:39;;;;;;;20.37;13.47;;;6.80;99.90;;;;;;5057032;28;20295;-58
2022/01/24 04:03:06;;;;;;;20.97;13.57;;;6.70;99.90;;;;;;5057827;28;20224;-58
2022/01/24 04:05:33;;;;;;;22.10;14.30;;;6.70;99.90;;;;;;5055650;28;20229;-58
2022/01/24 04:08:00;;;;;;;20.33;13.07;;;6.70;99.90;;;;;;5039238;28;20195;-56
2022/01/24 04:10:26;;;;;;;21.30;14.30;;;6.80;99.90;;;;;;5055282;28;20246;-55
2022/01/24 04:12:53;;;;;;;20.30;13.90;;;6.70;99.90;;;;;;5057749;28;20222;-59
2022/01/24 04:15:59;;;;;;;19.80;13.47;;;6.70;99.90;;;;;;5055752;28;20245;-57
2022/01/24 04:23:40;;;;;;;17.97;12.40;;;6.70;99.90;;;;;;5055749;28;20238;-56
2022/01/24 04:26:07;;;;;;;21.47;12.87;;;6.70;99.90;;;;;;5054465;28;20242;-57
2022/01/24 04:28:34;;;;;;;20.63;13.37;;;6.70;99.90;;;;;;5058038;28;20198;-58
2022/01/24 04:31:01;;;;;;;20.30;13.07;;;6.70;99.90;;;;;;5054444;28;20294;-58
2022/01/24 04:33:28;;;;;;;19.93;13.30;;;6.70;99.90;;;;;;5056212;28;20207;-55
2022/01/24 04:35:57;;;;;;;19.40;13.87;;;6.70;99.90;;;;;;5055307;28;20572;-58
2022/01/24 04:38:24;;;;;;;20.67;13.80;;;6.60;99.90;;;;;;5054184;28;20257;-57
2022/01/24 04:40:56;;;;;;;20.33;13.47;;;6.60;99.90;;;;;;5053396;28;20340;-57
2022/01/24 04:43:36;;;;;;;17.73;12.90;;;6.60;99.90;;;;;;5054269;28;20695;-57
2022/01/24 04:46:29;;;;;;;21.03;13.00;;;6.60;99.90;;;;;;5053732;28;20215;-57
2022/01/24 04:54:38;;;;;;;20.37;12.80;;;6.60;99.90;;;;;;5076903;28;20200;-57
2022/01/24 04:57:02;;;;;;;20.03;12.40;;;6.70;99.90;;;;;;5077082;28;20297;-57
2022/01/24 04:59:30;;;;;;;20.77;12.87;;;6.70;99.90;;;;;;5077726;28;20202;-57
2022/01/24 05:01:57;;;;;;;17.47;12.03;;;6.60;99.90;;;;;;5075638;28;20214;-55
2022/01/24 05:04:24;;;;;;;18.03;12.70;;;6.60;99.90;;;;;;5075588;28;20974;-57
2022/01/24 05:06:51;;;;;;;19.40;13.17;;;6.60;99.90;;;;;;5075364;28;20274;-57
2022/01/24 05:09:19;;;;;;;17.00;12.67;;;6.60;99.90;;;;;;5076907;28;20294;-57
2022/01/24 05:11:58;;;;;;;18.10;12.47;;;6.70;99.90;;;;;;5076543;28;20208;-58
2022/01/24 05:25:40;;;;;;;18.37;12.87;;;6.60;99.90;;;;;;5076575;28;20326;-59
2022/01/24 05:28:07;;;;;;;22.07;12.93;;;6.50;99.90;;;;;;5077220;28;20925;-56
2022/01/24 05:30:34;;;;;;;20.00;13.23;;;6.60;99.90;;;;;;5077104;28;20619;-58
2022/01/24 05:33:01;;;;;;;21.10;13.57;;;6.60;99.90;;;;;;5079767;28;21048;-57
2022/01/24 05:35:28;;;;;;;19.50;13.20;;;6.60;99.90;;;;;;5075215;28;20202;-57
2022/01/24 05:37:55;;;;;;;16.47;12.13;;;6.60;99.90;;;;;;5076435;28;20201;-58
2022/01/24 05:40:21;;;;;;;19.30;13.70;;;6.60;99.90;;;;;;5075272;28;21627;-57
2022/01/24 05:42:48;;;;;;;18.67;12.67;;;6.60;99.90;;;;;;5077994;28;20209;-58
2022/01/24 05:45:15;;;;;;;17.83;12.23;;;6.60;99.90;;;;;;5074638;28;20212;-59
2022/01/24 05:47:42;;;;;;;18.20;12.73;;;6.60;99.90;;;;;;5078294;28;20312;-59
2022/01/24 05:50:09;;;;;;;19.17;12.50;;;6.60;99.90;;;;;;5075421;28;20217;-57
2022/01/24 05:52:36;;;;;;;18.07;12.57;;;6.50;99.90;;;;;;5069794;28;20243;-56
2022/01/24 05:55:04;;;;;;;19.60;13.17;;;6.30;99.90;;;;;;5053853;28;21376;-58
2022/01/24 05:57:31;;;;;;;18.00;12.53;;;6.20;99.90;;;;;;5055825;28;20207;-58
2022/01/24 05:59:58;;;;;;;18.30;11.90;;;6.30;99.90;;;;;;5056513;28;20223;-58
2022/01/24 06:02:26;;;;;;;19.47;12.67;;;6.40;99.90;;;;;;5057703;28;20256;-58
2022/01/24 06:04:53;;;;;;;19.03;12.47;;;6.50;99.90;;;;;;5052104;28;20203;-58
2022/01/24 06:07:20;;;;;;;17.53;11.70;;;6.50;99.90;;;;;;5055767;28;20303;-58
2022/01/24 06:09:47;;;;;;;21.97;13.33;;;6.50;99.90;;;;;;5038605;28;20220;-58
2022/01/24 06:12:14;;;;;;;16.87;11.87;;;6.50;99.90;;;;;;5056109;28;20279;-58
2022/01/24 06:14:41;;;;;;;20.93;13.03;;;6.50;99.90;;;;;;5040026;28;20293;-58
2022/01/24 06:17:08;;;;;;;18.90;12.40;;;6.50;99.90;;;;;;5052629;28;20224;-58
2022/01/24 06:19:34;;;;;;;17.33;12.77;;;6.50;99.90;;;;;;5054941;28;20231;-58
2022/01/24 06:22:01;;;;;;;18.77;12.77;;;6.40;99.90;;;;;;5039715;28;20234;-58
2022/01/24 06:24:28;;;;;;;18.47;12.57;;;6.50;99.90;;;;;;5055091;28;20230;-58
2022/01/24 06:27:14;;;;;;;17.27;12.17;;;6.40;99.90;;;;;;5056843;28;20223;-55
2022/01/24 06:29:41;;;;;;;18.03;12.70;;;6.40;99.90;;;;;;5056215;28;20199;-57
2022/01/24 06:32:08;;;;;;;20.77;13.77;;;6.40;99.90;;;;;;5054610;28;20307;-58
2022/01/24 06:34:37;;;;;;;18.10;12.63;;;6.50;99.90;;;;;;5057904;28;20547;-58
2022/01/24 06:37:04;;;;;;;16.60;11.70;;;6.50;99.90;;;;;;5058506;28;20253;-57
2022/01/24 06:39:32;;;;;;;20.33;12.53;;;6.50;99.90;;;;;;5062202;28;20226;-58
2022/01/24 06:42:12;;;;;;;20.83;13.20;;;6.50;99.90;;;;;;5063796;28;20300;-58
2022/01/24 06:44:40;;;;;;;22.50;13.13;;;6.50;99.90;;;;;;5063579;28;20216;-58
2022/01/24 06:47:07;;;;;;;20.17;13.43;;;6.10;99.90;;;;;;5064557;28;20357;-58
2022/01/24 06:49:35;;;;;;;17.27;12.90;;;6.30;99.90;;;;;;5043478;28;20268;-58
2022/01/24 06:52:03;;;;;;;19.87;13.17;;;6.40;99.90;;;;;;5062383;28;20225;-58
2022/01/24 06:54:30;;;;;;;17.43;12.40;;;6.40;99.90;;;;;;5077746;28;20201;-58
2022/01/24 06:56:57;;;;;;;18.30;12.43;;;6.30;99.90;;;;;;5059565;28;20280;-58
2022/01/24 06:59:24;;;;;;;18.60;12.23;;;6.30;99.90;;;;;;5072512;28;20212;-57
2022/01/24 07:01:51;;;;;;;19.17;12.03;;;6.30;99.90;;;;;;5064387;28;20210;-56
2022/01/24 07:04:18;;;;;;;18.57;12.60;;;6.30;99.90;;;;;;5061887;28;20275;-58
2022/01/24 07:06:45;;;;;;;20.43;12.97;;;6.30;99.90;;;;;;5077039;28;20250;-59
2022/01/24 07:09:15;;;;;;;19.50;13.10;;;6.40;99.90;;;;;;5078709;28;20317;-60
2022/01/24 07:11:42;;;;;;;19.40;13.30;;;6.30;99.90;;;;;;5079786;28;20259;-58
2022/01/24 07:14:12;;;;;;;19.13;13.27;;;6.30;99.90;;;;;;5083951;28;20207;-58
2022/01/24 07:19:24;;;;;;;21.90;14.13;;;6.40;99.90;;;;;;5077938;28;20200;-59
2022/01/24 07:21:51;;;;;;;18.20;12.17;;;6.40;99.90;;;;;;5077754;28;20302;-57
2022/01/24 07:24:18;;;;;;;17.80;12.37;;;6.40;99.90;;;;;;5077857;28;20199;-59
2022/01/24 07:26:45;;;;;;;19.30;13.03;;;6.50;99.90;;;;;;5080665;28;20221;-59
2022/01/24 07:29:12;;;;;;;18.43;13.27;;;6.40;99.90;;;;;;5078490;28;21070;-58
2022/01/24 07:31:39;;;;;;;19.80;14.00;;;6.40;99.90;;;;;;5080210;28;20694;-58
2022/01/24 07:34:05;;;;;;;19.00;13.73;;;6.40;99.90;;;;;;5074590;28;20228;-57
2022/01/24 07:36:32;;;;;;;21.07;13.73;;;6.40;99.90;;;;;;5075904;28;20206;-57
2022/01/24 07:38:59;;;;;;;20.93;14.93;;;6.50;99.90;;;;;;5077464;28;20211;-59
2022/01/24 07:41:29;;;;;;;21.57;14.27;;;6.40;99.90;;;;;;5076775;28;20218;-57
2022/01/24 07:43:57;;;;;;;22.50;14.47;;;6.40;99.90;;;;;;5081500;28;20199;-57
2022/01/24 07:46:24;;;;;;;18.87;13.83;;;6.40;99.90;;;;;;5076185;28;20216;-58
2022/01/24 07:48:51;;;;;;;23.13;13.83;;;6.30;99.90;;;;;;5078302;28;20280;-56
2022/01/24 07:51:18;;;;;;;19.93;13.20;;;6.40;99.90;;;;;;5079896;28;20252;-58
2022/01/24 07:53:45;;;;;;;26.57;16.00;;;6.40;99.90;;;;;;5064497;28;20321;-58
2022/01/24 07:56:17;;;;;;;19.80;13.63;;;6.50;99.90;;;;;;5079321;28;20198;-57
2022/01/24 07:58:45;;;;;;;22.77;14.87;;;6.50;99.90;;;;;;5082472;28;20276;-57
2022/01/24 08:01:13;;;;;;;22.27;14.53;;;6.40;99.90;;;;;;5081370;28;20206;-57
2022/01/24 08:03:40;;;;;;;20.80;13.97;;;6.40;99.90;;;;;;5060548;28;20239;-57
2022/01/24 08:06:08;;;;;;;23.67;14.90;;;6.30;99.90;;;;;;5078324;28;20635;-59
2022/01/24 08:08:35;;;;;;;25.07;14.57;;;6.30;99.90;;;;;;5079704;28;20525;-58
2022/01/24 08:11:02;;;;;;;21.27;14.43;;;6.40;99.90;;;;;;5079707;28;20209;-59
2022/01/24 08:13:29;;;;;;;20.83;14.10;;;6.30;99.90;;;;;;5072803;28;20229;-58
2022/01/24 08:15:56;;;;;;;22.07;14.77;;;6.30;99.90;;;;;;5074553;28;20218;-58
2022/01/24 08:18:23;;;;;;;22.83;14.73;;;6.40;99.90;;;;;;5076420;28;20248;-56
2022/01/24 08:20:49;;;;;;;24.80;14.67;;;6.50;99.90;;;;;;5069634;28;20348;-58
2022/01/24 08:23:19;;;;;;;21.60;14.27;;;6.50;99.90;;;;;;5080893;28;20248;-59
2022/01/24 08:25:51;;;;;;;20.97;14.67;;;6.30;99.90;;;;;;5076354;28;20634;-58
2022/01/24 08:28:18;;;;;;;21.03;14.43;;;6.30;99.90;;;;;;5075359;28;20192;-58
2022/01/24 08:30:45;;;;;;;22.73;14.53;;;5.90;99.90;;;;;;5075631;28;20293;-58
2022/01/24 08:33:12;;;;;;;22.10;15.23;;;6.20;99.90;;;;;;5076229;28;20548;-58
2022/01/24 08:35:41;;;;;;;21.43;14.03;;;6.20;99.90;;;;;;5070520;28;20295;-58
2022/01/24 08:38:08;;;;;;;24.80;14.53;;;6.30;99.90;;;;;;5067616;28;20911;-58
2022/01/24 08:40:38;;;;;;;21.40;14.60;;;6.30;99.90;;;;;;5074759;28;20199;-58
2022/01/24 08:43:05;;;;;;;20.27;14.13;;;6.30;99.90;;;;;;5080407;28;20299;-61
2022/01/24 08:45:48;;;;;;;22.30;15.17;;;6.30;99.90;;;;;;5078591;28;20340;-57
2022/01/24 08:48:20;;;;;;;21.37;14.47;;;6.30;99.90;;;;;;5076504;28;20202;-57
2022/01/24 08:50:50;;;;;;;22.57;14.20;;;6.30;99.90;;;;;;5072751;28;20345;-58
2022/01/24 08:53:26;;;;;;;22.63;14.97;;;6.20;99.90;;;;;;5078915;28;20251;-58
2022/01/24 08:55:53;;;;;;;21.00;14.80;;;6.20;99.90;;;;;;5083290;28;20227;-58
2022/01/24 08:58:23;;;;;;;21.43;13.73;;;6.30;99.90;;;;;;5083201;28;20211;-59
2022/01/24 09:00:50;;;;;;;22.43;14.40;;;6.40;99.90;;;;;;5084928;28;20625;-58
2022/01/24 09:03:17;;;;;;;25.03;15.43;;;6.30;99.90;;;;;;5084485;28;20192;-58
2022/01/24 09:05:47;;;;;;;22.60;14.73;;;6.10;99.90;;;;;;5080198;28;20203;-58
2022/01/24 09:08:14;;;;;;;24.33;14.87;;;6.00;99.90;;;;;;5082184;28;20287;-58
2022/01/24 09:10:43;;;;;;;22.03;14.90;;;6.20;99.90;;;;;;5071302;28;20240;-58
2022/01/24 09:13:10;;;;;;;24.07;15.60;;;6.30;99.90;;;;;;5080868;28;20202;-59
2022/01/24 09:15:37;;;;;;;25.90;15.80;;;6.10;99.90;;;;;;5085302;28;20199;-57
2022/01/24 09:18:04;;;;;;;24.17;15.03;;;5.80;99.90;;;;;;5084576;28;20237;-57
2022/01/24 09:20:31;;;;;;;26.07;16.40;;;5.60;99.90;;;;;;5082434;28;20719;-58
2022/01/24 09:22:58;;;;;;;26.20;16.03;;;5.60;99.90;;;;;;5079232;28;20210;-58
2022/01/24 09:25:25;;;;;;;26.00;17.07;;;5.80;99.90;;;;;;5082329;28;20692;-58
2022/01/24 09:27:52;;;;;;;29.43;16.60;;;5.80;99.90;;;;;;5086789;28;20249;-58
2022/01/24 09:30:22;;;;;;;25.43;16.40;;;5.70;99.90;;;;;;5092446;28;20207;-58
2022/01/24 09:32:49;;;;;;;25.90;16.63;;;5.80;99.90;;;;;;5084098;28;20248;-57
2022/01/24 09:35:17;;;;;;;27.20;16.63;;;6.00;99.90;;;;;;5080380;28;20654;-57
2022/01/24 09:37:46;;;;;;;26.37;15.87;;;6.10;99.90;;;;;;5081230;28;20270;-57
2022/01/24 09:40:16;;;;;;;25.50;16.27;;;6.30;99.90;;;;;;5081616;28;20666;-58
2022/01/24 09:42:45;;;;;;;23.90;15.47;;;6.10;99.90;;;;;;5085539;28;20768;-58
2022/01/24 09:45:13;;;;;;;23.60;14.97;;;6.20;99.90;;;;;;5075187;28;20205;-58
2022/01/24 09:47:40;;;;;;;28.50;17.63;;;6.30;99.90;;;;;;5068334;28;20286;-55
2022/01/24 09:50:09;;;;;;;26.43;16.57;;;6.20;99.90;;;;;;5076955;28;20192;-58
2022/01/24 09:52:40;;;;;;;25.83;16.67;;;6.20;99.90;;;;;;5080260;28;20702;-54
2022/01/24 09:55:09;;;;;;;29.30;16.63;;;6.30;99.90;;;;;;5074416;28;20343;-56
2022/01/24 09:57:36;;;;;;;24.03;14.83;;;6.30;99.90;;;;;;5069249;28;20299;-58
2022/01/24 10:00:06;;;;;;;29.70;16.97;;;6.30;99.90;;;;;;5055957;28;20258;-57
2022/01/24 10:02:33;;;;;;;22.73;15.13;;;6.10;99.90;;;;;;5055146;28;20197;-57
2022/01/24 10:05:23;;;;;;;29.73;16.57;;;6.10;99.90;;;;;;5069686;28;20216;-58
2022/01/24 10:07:58;;;;;;;26.83;14.70;;;6.10;99.90;;;;;;5072835;28;20222;-58
2022/01/24 10:10:45;;;;;;;29.20;17.23;;;5.80;99.90;;;;;;5073506;28;20225;-58
2022/01/24 10:16:31;;;;;;;29.20;16.17;;;6.10;99.90;;;;;;5081034;28;20652;-58
2022/01/24 10:19:02;;;;;;;25.77;16.70;;;5.70;99.90;;;;;;5059299;28;20201;-58
2022/01/24 10:21:51;;;;;;;30.00;17.67;;;5.40;99.90;;;;;;5078730;28;20210;-58
2022/01/24 10:24:35;;;;;;;26.77;16.57;;;5.50;99.90;;;;;;5081017;28;20203;-57
2022/01/24 10:27:23;;;;;;;27.80;16.20;;;5.50;99.90;;;;;;5080444;28;20217;-58
2022/01/24 10:29:59;;;;;;;25.10;16.00;;;5.70;99.90;;;;;;5082874;28;20636;-59
2022/01/24 10:32:39;;;;;;;28.47;17.33;;;5.80;99.90;;;;;;5081882;28;20649;-58
2022/01/24 10:35:40;;;;;;;29.73;17.73;;;5.40;99.90;;;;;;5076772;28;20210;-56
2022/01/24 10:38:27;;;;;;;28.90;17.23;;;5.40;99.90;;;;;;5079457;28;20254;-58
2022/01/24 10:41:17;;;;;;;30.90;17.33;;;5.60;99.90;;;;;;5059660;28;21686;-58
2022/01/24 10:43:45;;;;;;;27.87;16.13;;;5.80;99.90;;;;;;5079386;28;20341;-58
2022/01/24 10:46:14;;;;;;;28.73;17.60;;;5.90;99.90;;;;;;5064745;28;20204;-56
2022/01/24 10:48:45;;;;;;;30.17;17.87;;;5.90;99.90;;;;;;5056759;28;20934;-57
2022/01/24 10:51:21;;;;;;;28.03;17.40;;;5.80;99.90;;;;;;5077275;28;20295;-57
2022/01/24 10:53:53;;;;;;;29.07;17.43;;;5.90;99.90;;;;;;5077425;28;20235;-58
2022/01/24 10:56:28;;;;;;;29.83;17.27;;;6.00;99.90;;;;;;5063886;28;20670;-58
2022/01/24 10:59:10;;;;;;;29.80;17.27;;;6.10;99.90;;;;;;5077613;28;20253;-57
2022/01/24 11:01:38;;;;;;;31.50;17.93;;;6.10;99.90;;;;;;5082185;28;20878;-59
2022/01/24 11:04:10;;;;;;;29.70;17.40;;;5.90;99.90;;;;;;5077096;28;20757;-58
2022/01/24 11:06:41;;;;;;;27.83;17.67;;;5.80;99.90;;;;;;5075725;28;20961;-59
2022/01/24 11:09:19;;;;;;;29.20;17.57;;;5.90;99.90;;;;;;5078295;28;20245;-57
2022/01/24 11:11:46;;;;;;;29.00;17.17;;;5.70;99.90;;;;;;5083918;28;20237;-57
2022/01/24 11:14:16;;;;;;;26.40;16.77;;;5.70;99.90;;;;;;5086504;28;20662;-57
2022/01/24 11:16:44;;;;;;;27.30;17.20;;;5.80;99.90;;;;;;5087096;28;20202;-58
2022/01/24 11:19:25;;;;;;;28.60;17.33;;;5.80;99.90;;;;;;5077089;28;20241;-58
2022/01/24 11:21:53;;;;;;;29.17;17.23;;;6.00;99.90;;;;;;5081030;28;20571;-58
2022/01/24 11:24:28;;;;;;;31.40;18.73;;;6.20;99.90;;;;;;5076919;28;20206;-57
2022/01/24 11:26:54;;;;;;;27.63;17.10;;;6.30;99.90;;;;;;5056277;28;20247;-58
2022/01/24 11:29:22;;;;;;;29.67;17.70;;;6.30;99.90;;;;;;5052925;28;20255;-57
2022/01/24 11:31:52;;;;;;;27.40;17.17;;;6.30;99.90;;;;;;5060497;28;20610;-57
2022/01/24 11:34:31;;;;;;;28.07;17.90;;;6.40;99.90;;;;;;5077588;28;20941;-62
2022/01/24 11:36:58;;;;;;;31.20;18.27;;;6.40;99.90;;;;;;5075099;28;20673;-63
2022/01/24 11:39:26;;;;;;;30.47;18.50;;;6.40;99.90;;;;;;5077767;28;20626;-63
2022/01/24 11:41:53;;;;;;;29.60;17.27;;;6.30;99.90;;;;;;5082901;28;20580;-58
2022/01/24 11:44:22;;;;;;;28.87;18.13;;;6.30;99.90;;;;;;5079607;28;20340;-58
2022/01/24 11:46:55;;;;;;;30.53;17.47;;;6.40;99.90;;;;;;5067533;28;20208;-58
2022/01/24 11:49:27;;;;;;;27.17;17.00;;;6.40;99.90;;;;;;5079098;28;20746;-58
2022/01/24 11:52:13;;;;;;;25.50;16.97;;;6.30;99.90;;;;;;5074106;28;20255;-58
2022/01/24 11:57:24;;;;;;;29.97;18.07;;;6.30;99.90;;;;;;5062233;28;20205;-58
2022/01/24 11:59:53;;;;;;;27.07;17.33;;;6.50;99.90;;;;;;5056165;28;20245;-58
2022/01/24 12:02:25;;;;;;;29.00;18.03;;;6.60;57.90;;;;;;5068390;28;20626;-58
2022/01/24 12:04:59;;;;;;;32.10;18.53;;;6.50;99.90;;;;;;5057090;28;20295;-58
2022/01/24 12:07:39;;;;;;;34.07;17.80;;;6.60;99.90;;;;;;5080630;28;20303;-58
2022/01/24 12:10:25;;;;;;;26.73;16.93;;;6.60;99.90;;;;;;5075432;28;20230;-58
2022/01/24 12:13:04;;;;;;;26.27;16.87;;;6.60;95.80;;;;;;5076417;28;20231;-57
2022/01/24 12:15:37;;;;;;;27.67;17.57;;;6.20;98.80;;;;;;5071006;28;20664;-57
2022/01/24 12:18:12;;;;;;;31.67;18.43;;;6.00;99.90;;;;;;5057319;28;20245;-58
2022/01/24 12:20:40;;;;;;;26.10;17.43;;;6.20;99.90;;;;;;5075959;28;20201;-58
2022/01/24 12:23:16;;;;;;;31.00;18.13;;;6.40;99.90;;;;;;5078247;28;21130;-58
2022/01/24 12:26:08;;;;;;;27.63;16.47;;;6.50;99.90;;;;;;5065984;28;20277;-58
2022/01/24 12:28:46;;;;;;;27.33;17.57;;;6.60;99.90;;;;;;5071558;28;21057;-58
2022/01/24 12:31:36;;;;;;;27.10;17.47;;;6.70;61.50;;;;;;5074032;28;20203;-57
2022/01/24 12:34:14;;;;;;;28.40;18.13;;;6.60;55.60;;;;;;5074060;28;20260;-58
2022/01/24 12:36:47;;;;;;;29.23;17.70;;;6.60;91.40;;;;;;5075055;28;20545;-57
2022/01/24 12:39:14;;;;;;;30.63;17.20;;;6.50;34.20;;;;;;5073430;28;20312;-58
2022/01/24 12:41:47;;;;;;;29.27;17.73;;;6.50;53.70;;;;;;5079081;28;20694;-58
2022/01/24 12:47:24;;;;;;;32.50;19.17;;;6.70;79.30;;;;;;5079149;28;20541;-57
2022/01/24 12:49:51;;;;;;;28.73;17.63;;;6.20;51.80;;;;;;5078612;28;20782;-58
2022/01/24 12:52:27;;;;;;;30.77;18.47;;;6.40;99.90;;;;;;5077010;28;20213;-58
2022/01/24 12:55:03;;;;;;;30.57;17.70;;;6.60;90.10;;;;;;5057414;28;20217;-55
2022/01/24 12:57:32;;;;;;;25.27;17.10;;;6.60;78.70;;;;;;5077869;28;20253;-58
2022/01/24 13:00:06;;;;;;;28.13;16.90;;;6.60;99.90;;;;;;5059247;28;20206;-58
2022/01/24 13:02:37;;;;;;;32.20;19.73;;;6.60;60.70;;;;;;5077157;28;20281;-61
2022/01/24 13:05:13;;;;;;;31.03;18.87;;;6.60;34.50;;;;;;5070194;28;20554;-58
2022/01/24 13:07:48;;;;;;;30.77;18.90;;;6.60;74.70;;;;;;5076502;28;20241;-57
2022/01/24 13:10:18;;;;;;;28.50;17.90;;;6.60;82.40;;;;;;5074809;28;20219;-58
2022/01/24 13:12:55;;;;;;;29.90;19.10;;;6.70;99.90;;;;;;5072844;28;20599;-58
2022/01/24 13:21:11;;;;;;;29.30;18.43;;;6.90;39.30;;;;;;5071797;28;20358;-58
2022/01/24 13:23:43;;;;;;;30.00;17.60;;;6.90;88.80;;;;;;5056655;28;20222;-58
2022/01/24 13:26:12;;;;;;;30.53;18.60;;;6.90;63.10;;;;;;5074848;28;20310;-58
2022/01/24 13:28:39;;;;;;;31.00;19.60;;;6.90;99.90;;;;;;5074862;28;22504;-58
2022/01/24 13:31:07;;;;;;;28.83;19.03;;;6.90;56.40;;;;;;5075592;28;20736;-57
2022/01/24 13:33:39;;;;;;;27.40;17.90;;;6.70;50.60;;;;;;5075401;28;20738;-57
2022/01/24 13:36:09;;;;;;;29.03;18.43;;;6.50;99.90;;;;;;5050701;28;20204;-57
2022/01/24 13:38:41;;;;;;;32.07;18.43;;;6.50;99.90;;;;;;5079176;28;20560;-57
2022/01/24 13:41:11;;;;;;;29.10;17.83;;;6.60;99.90;;;;;;5078171;28;20612;-57
2022/01/24 13:43:45;;;;;;;31.17;19.50;;;6.70;49.70;;;;;;5073598;28;20256;-58
2022/01/24 13:46:25;;;;;;;28.23;19.43;;;6.70;53.60;;;;;;5072476;28;20217;-58
2022/01/24 13:49:01;;;;;;;34.10;19.27;;;6.80;52.70;;;;;;5075007;28;20838;-57
2022/01/24 13:51:43;;;;;;;31.03;18.53;;;6.70;24.50;;;;;;5061371;28;20203;-58
2022/01/24 13:54:18;;;;;;;29.73;17.67;;;6.80;23.50;;;;;;5073731;28;20321;-57
2022/01/24 13:56:55;;;;;;;29.97;19.40;;;6.50;74.70;;;;;;5074496;28;20367;-57
2022/01/24 13:59:25;;;;;;;30.03;19.37;;;6.50;96.30;;;;;;5078358;28;20407;-58
2022/01/24 14:02:00;;;;;;;31.90;19.27;;;6.70;95.00;;;;;;5076552;28;20213;-59
2022/01/24 14:04:48;;;;;;;31.43;19.40;;;6.80;38.70;;;;;;5069669;28;20298;-58
2022/01/24 14:07:28;;;;;;;33.00;18.57;;;6.70;33.10;;;;;;5072970;28;20228;-58
2022/01/24 14:10:00;;;;;;;32.10;18.60;;;6.80;19.70;;;;;;5076285;28;20218;-58
2022/01/24 14:12:47;;;;;;;29.53;18.53;;;6.80;20.20;;;;;;5073987;28;20251;-58
2022/01/24 14:15:40;;;;;;;30.17;18.63;;;6.60;33.30;;;;;;5069206;28;20205;-61
2022/01/24 14:20:36;;;;;;;30.23;18.53;;;6.60;84.20;;;;;;5071625;28;20197;-58
2022/01/24 14:23:03;;;;;;;28.57;19.00;;;6.80;55.40;;;;;;5075931;28;20217;-57
2022/01/24 14:25:35;;;;;;;32.60;19.37;;;6.80;49.10;;;;;;5036771;28;20301;-56
2022/01/24 14:28:10;;;;;;;30.73;19.27;;;6.60;43.00;;;;;;5068710;28;20612;-56
2022/01/24 14:30:42;;;;;;;29.57;18.77;;;6.60;52.30;;;;;;5077489;28;20200;-57
2022/01/24 14:33:18;;;;;;;26.77;17.13;;;6.60;56.60;;;;;;5077777;28;20209;-55
2022/01/24 14:35:52;;;;;;;26.27;18.10;;;6.60;58.60;;;;;;5074103;28;20206;-56
2022/01/24 14:38:39;;;;;;;28.20;17.30;;;6.50;98.20;;;;;;5075353;28;20279;-57
2022/01/24 14:41:30;;;;;;;35.47;17.80;;;6.60;96.30;;;;;;5078923;28;20210;-57
2022/01/24 14:46:46;;;;;;;31.23;17.37;;;6.60;99.80;;;;;;5078378;28;20338;-57
2022/01/24 14:49:16;;;;;;;25.40;16.77;;;6.60;95.70;;;;;;5076460;28;20729;-57
2022/01/24 14:51:44;;;;;;;26.90;17.33;;;6.70;74.30;;;;;;5078221;28;20238;-57
2022/01/24 14:54:17;;;;;;;27.17;16.20;;;6.60;72.50;;;;;;5077906;28;20299;-57